Bowser, Canada
Current Conditions -  °F | °C
As of 11:00 AM on Thursday 30 Oct 2014 (Local Time) from CYQQ Reporting Station
Rain Showers Rain Showers  
Wind Chill: 52°   Ceiling: 3100
Heat Index: 52°   Visibility: 5mi
Dew Point: 50°   Wind: 20mph
Humidity: 94%   Direction: 130°SE
Pressure: 29.76"   Gusts: NA
Location:  49.43°N, 124.68°W
Report Text: CYQQ 301800Z 13017KT 5SM -SHRA BR BKN031 OVC055 11/10 A2976 RMK SC6SC2 /R12/ SLP078
Loading
Personal Weather Stations






























Interactive Weather Map
Tropical Storm Tracking
New forecast layout! Learn more

10-Day Weather Forecast

Advertisements
Track Severe Weather on mobile